sensor_id;sensor_type;location;lat;lon;timestamp;P1;durP1;ratioP1;P2;durP2;ratioP2
31680;SDS011;18281;51.364;9.566;2022-07-06T00:01:44;0.80;;;0.75;;
31680;SDS011;18281;51.364;9.566;2022-07-06T00:04:10;7.82;;;1.15;;
31680;SDS011;18281;51.364;9.566;2022-07-06T00:06:35;2.75;;;0.80;;
31680;SDS011;18281;51.364;9.566;2022-07-06T00:09:01;1.27;;;0.73;;
31680;SDS011;18281;51.364;9.566;2022-07-06T00:11:28;1.15;;;0.82;;
31680;SDS011;18281;51.364;9.566;2022-07-06T00:13:54;1.55;;;0.80;;
31680;SDS011;18281;51.364;9.566;2022-07-06T00:16:21;2.10;;;1.00;;
31680;SDS011;18281;51.364;9.566;2022-07-06T00:18:47;1.25;;;0.88;;
31680;SDS011;18281;51.364;9.566;2022-07-06T00:21:12;1.42;;;0.70;;
31680;SDS011;18281;51.364;9.566;2022-07-06T00:23:38;1.27;;;1.00;;
31680;SDS011;18281;51.364;9.566;2022-07-06T00:26:03;1.48;;;0.90;;
31680;SDS011;18281;51.364;9.566;2022-07-06T00:28:28;1.90;;;1.05;;
31680;SDS011;18281;51.364;9.566;2022-07-06T00:30:54;1.80;;;0.80;;
31680;SDS011;18281;51.364;9.566;2022-07-06T00:33:20;3.70;;;0.98;;
31680;SDS011;18281;51.364;9.566;2022-07-06T00:35:45;1.77;;;0.93;;
31680;SDS011;18281;51.364;9.566;2022-07-06T00:38:11;3.33;;;0.90;;
31680;SDS011;18281;51.364;9.566;2022-07-06T00:40:37;3.28;;;1.02;;
31680;SDS011;18281;51.364;9.566;2022-07-06T00:43:02;3.95;;;1.00;;
31680;SDS011;18281;51.364;9.566;2022-07-06T00:45:28;2.15;;;0.93;;
31680;SDS011;18281;51.364;9.566;2022-07-06T00:47:54;3.22;;;1.00;;
31680;SDS011;18281;51.364;9.566;2022-07-06T00:50:19;1.35;;;0.98;;
31680;SDS011;18281;51.364;9.566;2022-07-06T00:55:18;1.65;;;0.95;;
31680;SDS011;18281;51.364;9.566;2022-07-06T00:57:47;1.70;;;1.00;;
31680;SDS011;18281;51.364;9.566;2022-07-06T01:00:14;3.97;;;1.00;;
31680;SDS011;18281;51.364;9.566;2022-07-06T01:02:41;2.15;;;0.90;;
31680;SDS011;18281;51.364;9.566;2022-07-06T01:05:08;2.55;;;1.02;;
31680;SDS011;18281;51.364;9.566;2022-07-06T01:07:35;1.85;;;0.90;;
31680;SDS011;18281;51.364;9.566;2022-07-06T01:10:02;2.30;;;0.90;;
31680;SDS011;18281;51.364;9.566;2022-07-06T01:12:28;1.88;;;0.80;;
31680;SDS011;18281;51.364;9.566;2022-07-06T01:14:54;2.08;;;0.90;;
31680;SDS011;18281;51.364;9.566;2022-07-06T01:17:20;1.73;;;1.00;;
31680;SDS011;18281;51.364;9.566;2022-07-06T01:19:46;1.70;;;0.70;;
31680;SDS011;18281;51.364;9.566;2022-07-06T01:22:12;2.25;;;0.80;;
31680;SDS011;18281;51.364;9.566;2022-07-06T01:24:37;0.85;;;0.77;;
31680;SDS011;18281;51.364;9.566;2022-07-06T01:27:04;2.95;;;1.10;;
31680;SDS011;18281;51.364;9.566;2022-07-06T01:29:30;1.55;;;0.73;;
31680;SDS011;18281;51.364;9.566;2022-07-06T01:31:56;3.83;;;0.90;;
31680;SDS011;18281;51.364;9.566;2022-07-06T01:34:22;1.95;;;0.82;;
31680;SDS011;18281;51.364;9.566;2022-07-06T01:36:48;1.27;;;0.95;;
31680;SDS011;18281;51.364;9.566;2022-07-06T01:39:13;2.47;;;0.95;;
31680;SDS011;18281;51.364;9.566;2022-07-06T01:41:39;1.58;;;1.00;;
31680;SDS011;18281;51.364;9.566;2022-07-06T01:44:05;2.17;;;0.90;;
31680;SDS011;18281;51.364;9.566;2022-07-06T01:46:31;2.05;;;1.05;;
31680;SDS011;18281;51.364;9.566;2022-07-06T01:48:56;3.20;;;1.17;;
31680;SDS011;18281;51.364;9.566;2022-07-06T01:51:25;1.77;;;0.88;;
31680;SDS011;18281;51.364;9.566;2022-07-06T01:53:51;2.97;;;0.95;;
31680;SDS011;18281;51.364;9.566;2022-07-06T01:56:20;8.48;;;0.98;;
31680;SDS011;18281;51.364;9.566;2022-07-06T01:58:46;5.23;;;1.03;;
31680;SDS011;18281;51.364;9.566;2022-07-06T02:01:16;2.30;;;1.10;;
31680;SDS011;18281;51.364;9.566;2022-07-06T02:03:54;2.38;;;1.20;;
31680;SDS011;18281;51.364;9.566;2022-07-06T02:06:25;4.90;;;1.10;;
31680;SDS011;18281;51.364;9.566;2022-07-06T02:08:50;2.45;;;1.15;;
31680;SDS011;18281;51.364;9.566;2022-07-06T02:11:16;7.00;;;1.50;;
31680;SDS011;18281;51.364;9.566;2022-07-06T02:13:42;4.00;;;1.30;;
31680;SDS011;18281;51.364;9.566;2022-07-06T02:16:10;2.35;;;1.23;;
31680;SDS011;18281;51.364;9.566;2022-07-06T02:18:36;0.90;;;0.85;;
31680;SDS011;18281;51.364;9.566;2022-07-06T02:21:10;2.72;;;1.00;;
31680;SDS011;18281;51.364;9.566;2022-07-06T02:23:38;7.00;;;1.35;;
31680;SDS011;18281;51.364;9.566;2022-07-06T02:26:07;1.50;;;1.00;;
31680;SDS011;18281;51.364;9.566;2022-07-06T02:28:32;1.92;;;0.90;;
31680;SDS011;18281;51.364;9.566;2022-07-06T02:30:58;1.15;;;0.77;;
31680;SDS011;18281;51.364;9.566;2022-07-06T02:33:26;2.33;;;0.93;;
31680;SDS011;18281;51.364;9.566;2022-07-06T02:35:51;1.63;;;0.93;;
31680;SDS011;18281;51.364;9.566;2022-07-06T02:38:17;2.65;;;1.00;;
31680;SDS011;18281;51.364;9.566;2022-07-06T02:40:47;3.72;;;1.10;;
31680;SDS011;18281;51.364;9.566;2022-07-06T02:43:13;2.92;;;1.35;;
31680;SDS011;18281;51.364;9.566;2022-07-06T02:45:38;2.42;;;1.10;;
31680;SDS011;18281;51.364;9.566;2022-07-06T02:48:04;2.00;;;0.95;;
31680;SDS011;18281;51.364;9.566;2022-07-06T02:50:29;3.55;;;0.88;;
31680;SDS011;18281;51.364;9.566;2022-07-06T02:52:55;1.85;;;0.85;;
31680;SDS011;18281;51.364;9.566;2022-07-06T02:55:20;1.75;;;0.98;;
31680;SDS011;18281;51.364;9.566;2022-07-06T02:57:46;3.63;;;1.23;;
31680;SDS011;18281;51.364;9.566;2022-07-06T03:00:11;2.25;;;1.00;;
31680;SDS011;18281;51.364;9.566;2022-07-06T03:02:37;2.40;;;1.25;;
31680;SDS011;18281;51.364;9.566;2022-07-06T03:05:03;1.17;;;0.98;;
31680;SDS011;18281;51.364;9.566;2022-07-06T03:07:29;3.13;;;1.02;;
31680;SDS011;18281;51.364;9.566;2022-07-06T03:09:54;1.90;;;0.73;;
31680;SDS011;18281;51.364;9.566;2022-07-06T03:12:19;2.28;;;1.00;;
31680;SDS011;18281;51.364;9.566;2022-07-06T03:14:45;1.83;;;1.00;;
31680;SDS011;18281;51.364;9.566;2022-07-06T03:17:11;6.25;;;0.90;;
31680;SDS011;18281;51.364;9.566;2022-07-06T03:19:36;3.63;;;1.10;;
31680;SDS011;18281;51.364;9.566;2022-07-06T03:22:02;2.92;;;1.02;;
31680;SDS011;18281;51.364;9.566;2022-07-06T03:24:27;2.35;;;1.10;;
31680;SDS011;18281;51.364;9.566;2022-07-06T03:26:53;1.58;;;1.10;;
31680;SDS011;18281;51.364;9.566;2022-07-06T03:29:18;2.50;;;1.33;;
31680;SDS011;18281;51.364;9.566;2022-07-06T03:31:44;1.55;;;0.88;;
31680;SDS011;18281;51.364;9.566;2022-07-06T03:34:09;3.65;;;1.10;;
31680;SDS011;18281;51.364;9.566;2022-07-06T03:36:34;1.02;;;0.80;;
31680;SDS011;18281;51.364;9.566;2022-07-06T03:39:00;3.00;;;0.95;;
31680;SDS011;18281;51.364;9.566;2022-07-06T03:41:25;1.55;;;1.00;;
31680;SDS011;18281;51.364;9.566;2022-07-06T03:43:51;2.58;;;1.13;;
31680;SDS011;18281;51.364;9.566;2022-07-06T03:46:16;5.57;;;1.13;;
31680;SDS011;18281;51.364;9.566;2022-07-06T03:48:42;1.42;;;0.95;;
31680;SDS011;18281;51.364;9.566;2022-07-06T03:51:07;4.50;;;0.93;;
31680;SDS011;18281;51.364;9.566;2022-07-06T03:53:33;1.98;;;1.10;;
31680;SDS011;18281;51.364;9.566;2022-07-06T03:55:58;2.75;;;0.82;;
31680;SDS011;18281;51.364;9.566;2022-07-06T03:58:42;2.95;;;0.98;;
31680;SDS011;18281;51.364;9.566;2022-07-06T04:01:10;2.53;;;1.33;;
31680;SDS011;18281;51.364;9.566;2022-07-06T04:03:35;2.60;;;1.13;;
31680;SDS011;18281;51.364;9.566;2022-07-06T04:06:01;1.63;;;1.15;;
31680;SDS011;18281;51.364;9.566;2022-07-06T04:08:26;0.95;;;0.70;;
31680;SDS011;18281;51.364;9.566;2022-07-06T04:10:51;2.03;;;0.88;;
31680;SDS011;18281;51.364;9.566;2022-07-06T04:13:17;2.92;;;1.42;;
31680;SDS011;18281;51.364;9.566;2022-07-06T04:15:42;1.35;;;0.80;;
31680;SDS011;18281;51.364;9.566;2022-07-06T04:18:08;1.40;;;0.80;;
31680;SDS011;18281;51.364;9.566;2022-07-06T04:20:33;1.20;;;1.10;;
31680;SDS011;18281;51.364;9.566;2022-07-06T04:22:58;5.25;;;0.88;;
31680;SDS011;18281;51.364;9.566;2022-07-06T04:25:24;3.40;;;1.00;;
31680;SDS011;18281;51.364;9.566;2022-07-06T04:27:50;3.45;;;1.10;;
31680;SDS011;18281;51.364;9.566;2022-07-06T04:30:15;3.00;;;1.17;;
31680;SDS011;18281;51.364;9.566;2022-07-06T04:32:41;1.83;;;1.00;;
31680;SDS011;18281;51.364;9.566;2022-07-06T04:35:06;3.00;;;0.95;;
31680;SDS011;18281;51.364;9.566;2022-07-06T04:37:32;4.35;;;1.10;;
31680;SDS011;18281;51.364;9.566;2022-07-06T04:39:58;3.47;;;1.10;;
31680;SDS011;18281;51.364;9.566;2022-07-06T04:42:23;1.33;;;1.00;;
31680;SDS011;18281;51.364;9.566;2022-07-06T04:44:49;2.13;;;1.10;;
31680;SDS011;18281;51.364;9.566;2022-07-06T04:47:16;6.00;;;1.23;;
31680;SDS011;18281;51.364;9.566;2022-07-06T04:49:42;3.65;;;0.90;;
31680;SDS011;18281;51.364;9.566;2022-07-06T04:52:07;2.22;;;0.98;;
31680;SDS011;18281;51.364;9.566;2022-07-06T04:54:33;3.92;;;1.00;;
31680;SDS011;18281;51.364;9.566;2022-07-06T04:57:00;1.88;;;1.05;;
31680;SDS011;18281;51.364;9.566;2022-07-06T04:59:25;3.30;;;1.05;;
31680;SDS011;18281;51.364;9.566;2022-07-06T05:01:50;2.92;;;1.10;;
31680;SDS011;18281;51.364;9.566;2022-07-06T05:04:16;3.15;;;1.35;;
31680;SDS011;18281;51.364;9.566;2022-07-06T05:06:45;6.82;;;1.52;;
31680;SDS011;18281;51.364;9.566;2022-07-06T05:09:11;4.50;;;1.30;;
31680;SDS011;18281;51.364;9.566;2022-07-06T05:11:37;3.08;;;1.33;;
31680;SDS011;18281;51.364;9.566;2022-07-06T05:14:03;2.35;;;1.45;;
31680;SDS011;18281;51.364;9.566;2022-07-06T05:16:28;2.25;;;1.20;;
31680;SDS011;18281;51.364;9.566;2022-07-06T05:18:54;1.85;;;1.25;;
31680;SDS011;18281;51.364;9.566;2022-07-06T05:21:19;2.85;;;1.27;;
31680;SDS011;18281;51.364;9.566;2022-07-06T05:23:44;2.60;;;1.05;;
31680;SDS011;18281;51.364;9.566;2022-07-06T05:26:10;1.48;;;1.23;;
31680;SDS011;18281;51.364;9.566;2022-07-06T05:28:38;2.13;;;1.33;;
31680;SDS011;18281;51.364;9.566;2022-07-06T05:31:03;1.70;;;1.25;;
31680;SDS011;18281;51.364;9.566;2022-07-06T05:33:29;2.15;;;1.15;;
31680;SDS011;18281;51.364;9.566;2022-07-06T05:35:54;3.60;;;1.00;;
31680;SDS011;18281;51.364;9.566;2022-07-06T05:38:25;3.80;;;1.50;;
31680;SDS011;18281;51.364;9.566;2022-07-06T05:40:50;2.78;;;1.38;;
31680;SDS011;18281;51.364;9.566;2022-07-06T05:43:16;1.90;;;1.42;;
31680;SDS011;18281;51.364;9.566;2022-07-06T05:45:42;2.10;;;1.40;;
31680;SDS011;18281;51.364;9.566;2022-07-06T05:48:08;1.70;;;1.23;;
31680;SDS011;18281;51.364;9.566;2022-07-06T05:50:52;1.20;;;1.10;;
31680;SDS011;18281;51.364;9.566;2022-07-06T05:53:18;5.45;;;1.50;;
31680;SDS011;18281;51.364;9.566;2022-07-06T05:55:43;2.45;;;1.60;;
31680;SDS011;18281;51.364;9.566;2022-07-06T05:58:09;5.90;;;1.67;;
31680;SDS011;18281;51.364;9.566;2022-07-06T06:00:34;2.20;;;1.38;;
31680;SDS011;18281;51.364;9.566;2022-07-06T06:03:00;2.40;;;1.38;;
31680;SDS011;18281;51.364;9.566;2022-07-06T06:05:25;2.83;;;1.23;;
31680;SDS011;18281;51.364;9.566;2022-07-06T06:07:51;2.75;;;1.63;;
31680;SDS011;18281;51.364;9.566;2022-07-06T06:10:18;3.17;;;1.52;;
31680;SDS011;18281;51.364;9.566;2022-07-06T06:12:44;5.05;;;1.60;;
31680;SDS011;18281;51.364;9.566;2022-07-06T06:15:10;4.30;;;2.05;;
31680;SDS011;18281;51.364;9.566;2022-07-06T06:17:37;4.07;;;1.58;;
31680;SDS011;18281;51.364;9.566;2022-07-06T06:20:04;5.30;;;1.60;;
31680;SDS011;18281;51.364;9.566;2022-07-06T06:22:32;4.22;;;1.45;;
31680;SDS011;18281;51.364;9.566;2022-07-06T06:25:13;6.45;;;1.45;;
31680;SDS011;18281;51.364;9.566;2022-07-06T06:27:42;3.58;;;1.48;;
31680;SDS011;18281;51.364;9.566;2022-07-06T06:30:08;5.40;;;2.00;;
31680;SDS011;18281;51.364;9.566;2022-07-06T06:32:34;4.80;;;1.25;;
31680;SDS011;18281;51.364;9.566;2022-07-06T06:34:59;2.67;;;1.52;;
31680;SDS011;18281;51.364;9.566;2022-07-06T06:37:24;5.07;;;1.88;;
31680;SDS011;18281;51.364;9.566;2022-07-06T06:39:50;4.13;;;1.50;;
31680;SDS011;18281;51.364;9.566;2022-07-06T06:42:15;3.30;;;1.55;;
31680;SDS011;18281;51.364;9.566;2022-07-06T06:44:41;3.60;;;1.50;;
31680;SDS011;18281;51.364;9.566;2022-07-06T06:47:06;5.38;;;1.65;;
31680;SDS011;18281;51.364;9.566;2022-07-06T06:49:32;1.42;;;1.30;;
31680;SDS011;18281;51.364;9.566;2022-07-06T06:51:57;3.17;;;1.40;;
31680;SDS011;18281;51.364;9.566;2022-07-06T06:54:23;2.58;;;1.42;;
31680;SDS011;18281;51.364;9.566;2022-07-06T06:56:48;4.50;;;1.67;;
31680;SDS011;18281;51.364;9.566;2022-07-06T06:59:13;2.58;;;1.40;;
31680;SDS011;18281;51.364;9.566;2022-07-06T07:01:42;7.30;;;1.40;;
31680;SDS011;18281;51.364;9.566;2022-07-06T07:04:07;2.08;;;1.27;;
31680;SDS011;18281;51.364;9.566;2022-07-06T07:06:33;2.95;;;1.60;;
31680;SDS011;18281;51.364;9.566;2022-07-06T07:08:58;5.68;;;1.80;;
31680;SDS011;18281;51.364;9.566;2022-07-06T07:11:24;3.40;;;1.13;;
31680;SDS011;18281;51.364;9.566;2022-07-06T07:13:49;3.35;;;1.40;;
31680;SDS011;18281;51.364;9.566;2022-07-06T07:16:15;7.57;;;1.60;;
31680;SDS011;18281;51.364;9.566;2022-07-06T07:18:40;4.20;;;1.23;;
31680;SDS011;18281;51.364;9.566;2022-07-06T07:21:05;3.22;;;1.48;;
31680;SDS011;18281;51.364;9.566;2022-07-06T07:23:31;7.13;;;3.28;;
31680;SDS011;18281;51.364;9.566;2022-07-06T07:25:56;6.90;;;2.65;;
31680;SDS011;18281;51.364;9.566;2022-07-06T07:28:22;2.80;;;1.42;;
31680;SDS011;18281;51.364;9.566;2022-07-06T07:30:47;3.50;;;1.05;;
31680;SDS011;18281;51.364;9.566;2022-07-06T07:33:12;2.13;;;0.98;;
31680;SDS011;18281;51.364;9.566;2022-07-06T07:35:38;3.58;;;0.63;;
31680;SDS011;18281;51.364;9.566;2022-07-06T07:38:04;4.30;;;0.90;;
31680;SDS011;18281;51.364;9.566;2022-07-06T07:40:29;4.22;;;0.90;;
31680;SDS011;18281;51.364;9.566;2022-07-06T07:42:55;1.15;;;0.77;;
31680;SDS011;18281;51.364;9.566;2022-07-06T07:45:23;2.40;;;0.70;;
31680;SDS011;18281;51.364;9.566;2022-07-06T07:47:48;5.50;;;0.82;;
31680;SDS011;18281;51.364;9.566;2022-07-06T07:50:13;3.13;;;0.82;;
31680;SDS011;18281;51.364;9.566;2022-07-06T07:52:39;2.20;;;0.73;;
31680;SDS011;18281;51.364;9.566;2022-07-06T07:55:05;2.15;;;0.70;;
31680;SDS011;18281;51.364;9.566;2022-07-06T07:57:31;5.63;;;0.60;;
31680;SDS011;18281;51.364;9.566;2022-07-06T07:59:56;3.33;;;0.80;;
31680;SDS011;18281;51.364;9.566;2022-07-06T08:02:24;3.55;;;0.73;;
31680;SDS011;18281;51.364;9.566;2022-07-06T08:04:50;3.60;;;0.90;;
31680;SDS011;18281;51.364;9.566;2022-07-06T08:07:15;0.98;;;0.60;;
31680;SDS011;18281;51.364;9.566;2022-07-06T08:09:40;1.88;;;0.88;;
31680;SDS011;18281;51.364;9.566;2022-07-06T08:12:06;1.83;;;0.90;;
31680;SDS011;18281;51.364;9.566;2022-07-06T08:14:32;1.95;;;0.70;;
31680;SDS011;18281;51.364;9.566;2022-07-06T08:17:00;1.70;;;0.70;;
31680;SDS011;18281;51.364;9.566;2022-07-06T08:19:25;3.90;;;0.80;;
31680;SDS011;18281;51.364;9.566;2022-07-06T08:21:52;6.60;;;0.77;;
31680;SDS011;18281;51.364;9.566;2022-07-06T08:24:17;5.07;;;1.00;;
31680;SDS011;18281;51.364;9.566;2022-07-06T08:26:42;2.40;;;0.68;;
31680;SDS011;18281;51.364;9.566;2022-07-06T08:29:08;2.33;;;0.70;;
31680;SDS011;18281;51.364;9.566;2022-07-06T08:31:33;0.82;;;0.40;;
31680;SDS011;18281;51.364;9.566;2022-07-06T08:33:59;3.10;;;0.55;;
31680;SDS011;18281;51.364;9.566;2022-07-06T08:36:25;2.00;;;0.65;;
31680;SDS011;18281;51.364;9.566;2022-07-06T08:38:51;2.97;;;0.77;;
31680;SDS011;18281;51.364;9.566;2022-07-06T08:41:17;3.17;;;0.63;;
31680;SDS011;18281;51.364;9.566;2022-07-06T08:43:43;3.15;;;1.00;;
31680;SDS011;18281;51.364;9.566;2022-07-06T08:46:08;2.00;;;0.60;;
31680;SDS011;18281;51.364;9.566;2022-07-06T08:48:38;2.33;;;0.80;;
31680;SDS011;18281;51.364;9.566;2022-07-06T08:51:05;4.15;;;0.70;;
31680;SDS011;18281;51.364;9.566;2022-07-06T08:53:31;2.50;;;0.50;;
31680;SDS011;18281;51.364;9.566;2022-07-06T08:55:57;4.07;;;0.90;;
31680;SDS011;18281;51.364;9.566;2022-07-06T08:58:26;1.40;;;0.90;;
31680;SDS011;18281;51.364;9.566;2022-07-06T09:03:21;6.55;;;0.70;;
31680;SDS011;18281;51.364;9.566;2022-07-06T09:05:48;1.33;;;0.80;;
31680;SDS011;18281;51.364;9.566;2022-07-06T09:08:16;1.40;;;0.50;;
31680;SDS011;18281;51.364;9.566;2022-07-06T09:10:44;1.20;;;0.60;;
31680;SDS011;18281;51.364;9.566;2022-07-06T09:13:09;3.63;;;0.77;;
31680;SDS011;18281;51.364;9.566;2022-07-06T09:15:38;0.47;;;0.30;;
31680;SDS011;18281;51.364;9.566;2022-07-06T09:18:04;0.98;;;0.25;;
31680;SDS011;18281;51.364;9.566;2022-07-06T09:20:30;2.95;;;0.60;;
31680;SDS011;18281;51.364;9.566;2022-07-06T09:23:00;1.23;;;0.55;;
31680;SDS011;18281;51.364;9.566;2022-07-06T09:25:27;4.68;;;1.00;;
31680;SDS011;18281;51.364;9.566;2022-07-06T09:27:53;1.55;;;0.40;;
31680;SDS011;18281;51.364;9.566;2022-07-06T09:30:20;1.90;;;0.65;;
31680;SDS011;18281;51.364;9.566;2022-07-06T09:32:47;4.38;;;0.73;;
31680;SDS011;18281;51.364;9.566;2022-07-06T09:37:46;6.03;;;0.95;;
31680;SDS011;18281;51.364;9.566;2022-07-06T09:40:17;1.10;;;0.40;;
31680;SDS011;18281;51.364;9.566;2022-07-06T09:42:44;2.40;;;0.77;;
31680;SDS011;18281;51.364;9.566;2022-07-06T09:45:10;1.40;;;0.50;;
31680;SDS011;18281;51.364;9.566;2022-07-06T09:47:38;3.00;;;0.50;;
31680;SDS011;18281;51.364;9.566;2022-07-06T09:50:08;3.75;;;0.43;;
31680;SDS011;18281;51.364;9.566;2022-07-06T09:52:34;0.93;;;0.30;;
31680;SDS011;18281;51.364;9.566;2022-07-06T09:55:00;2.13;;;0.45;;
31680;SDS011;18281;51.364;9.566;2022-07-06T09:57:26;1.55;;;0.38;;
31680;SDS011;18281;51.364;9.566;2022-07-06T09:59:51;0.57;;;0.52;;
31680;SDS011;18281;51.364;9.566;2022-07-06T10:02:17;1.20;;;0.70;;
31680;SDS011;18281;51.364;9.566;2022-07-06T10:04:45;0.30;;;0.10;;
31680;SDS011;18281;51.364;9.566;2022-07-06T10:07:11;1.75;;;0.50;;
31680;SDS011;18281;51.364;9.566;2022-07-06T10:09:38;1.17;;;0.52;;
31680;SDS011;18281;51.364;9.566;2022-07-06T10:12:06;0.65;;;0.32;;
31680;SDS011;18281;51.364;9.566;2022-07-06T10:14:37;2.55;;;1.25;;
31680;SDS011;18281;51.364;9.566;2022-07-06T10:17:04;2.08;;;0.47;;
31680;SDS011;18281;51.364;9.566;2022-07-06T10:19:33;2.40;;;0.68;;
31680;SDS011;18281;51.364;9.566;2022-07-06T10:24:29;3.88;;;0.70;;
31680;SDS011;18281;51.364;9.566;2022-07-06T10:26:55;5.57;;;1.13;;
31680;SDS011;18281;51.364;9.566;2022-07-06T10:29:21;3.97;;;0.70;;
31680;SDS011;18281;51.364;9.566;2022-07-06T10:31:49;0.95;;;0.40;;
31680;SDS011;18281;51.364;9.566;2022-07-06T10:34:17;1.52;;;0.50;;
31680;SDS011;18281;51.364;9.566;2022-07-06T10:36:46;4.25;;;1.38;;
31680;SDS011;18281;51.364;9.566;2022-07-06T10:39:14;3.45;;;0.50;;
31680;SDS011;18281;51.364;9.566;2022-07-06T10:41:58;1.75;;;0.52;;
31680;SDS011;18281;51.364;9.566;2022-07-06T10:44:24;2.97;;;0.52;;
31680;SDS011;18281;51.364;9.566;2022-07-06T10:46:54;1.25;;;0.57;;
31680;SDS011;18281;51.364;9.566;2022-07-06T10:49:22;0.63;;;0.30;;
31680;SDS011;18281;51.364;9.566;2022-07-06T10:51:49;0.38;;;0.20;;
31680;SDS011;18281;51.364;9.566;2022-07-06T10:54:18;0.85;;;0.40;;
31680;SDS011;18281;51.364;9.566;2022-07-06T10:56:46;1.15;;;0.50;;
31680;SDS011;18281;51.364;9.566;2022-07-06T10:59:21;0.77;;;0.43;;
31680;SDS011;18281;51.364;9.566;2022-07-06T11:04:33;1.00;;;0.30;;
31680;SDS011;18281;51.364;9.566;2022-07-06T11:07:06;4.30;;;0.60;;
31680;SDS011;18281;51.364;9.566;2022-07-06T11:09:33;1.38;;;0.30;;
31680;SDS011;18281;51.364;9.566;2022-07-06T11:12:00;3.83;;;0.55;;
31680;SDS011;18281;51.364;9.566;2022-07-06T11:14:37;3.97;;;0.45;;
31680;SDS011;18281;51.364;9.566;2022-07-06T11:17:04;0.68;;;0.60;;
31680;SDS011;18281;51.364;9.566;2022-07-06T11:19:30;2.22;;;0.35;;
31680;SDS011;18281;51.364;9.566;2022-07-06T11:21:57;4.82;;;0.35;;
31680;SDS011;18281;51.364;9.566;2022-07-06T11:24:34;2.88;;;0.57;;
31680;SDS011;18281;51.364;9.566;2022-07-06T11:27:07;2.28;;;0.57;;
31680;SDS011;18281;51.364;9.566;2022-07-06T11:29:34;1.70;;;0.70;;
31680;SDS011;18281;51.364;9.566;2022-07-06T11:32:01;0.93;;;0.40;;
31680;SDS011;18281;51.364;9.566;2022-07-06T11:34:33;2.85;;;0.40;;
31680;SDS011;18281;51.364;9.566;2022-07-06T11:37:00;1.27;;;0.50;;
31680;SDS011;18281;51.364;9.566;2022-07-06T11:39:30;1.45;;;0.47;;
31680;SDS011;18281;51.364;9.566;2022-07-06T11:41:57;1.67;;;0.52;;
31680;SDS011;18281;51.364;9.566;2022-07-06T11:44:24;1.42;;;0.43;;
31680;SDS011;18281;51.364;9.566;2022-07-06T11:46:50;4.22;;;0.73;;
31680;SDS011;18281;51.364;9.566;2022-07-06T11:49:16;1.45;;;0.60;;
31680;SDS011;18281;51.364;9.566;2022-07-06T11:51:42;2.05;;;0.40;;
31680;SDS011;18281;51.364;9.566;2022-07-06T11:54:14;4.80;;;0.68;;
31680;SDS011;18281;51.364;9.566;2022-07-06T11:59:21;2.40;;;0.60;;
31680;SDS011;18281;51.364;9.566;2022-07-06T12:01:48;3.22;;;0.50;;
31680;SDS011;18281;51.364;9.566;2022-07-06T12:04:14;1.88;;;0.47;;
31680;SDS011;18281;51.364;9.566;2022-07-06T12:06:40;1.60;;;0.55;;
31680;SDS011;18281;51.364;9.566;2022-07-06T12:09:08;2.67;;;0.57;;
31680;SDS011;18281;51.364;9.566;2022-07-06T12:11:34;0.50;;;0.50;;
31680;SDS011;18281;51.364;9.566;2022-07-06T12:14:02;1.42;;;0.50;;
31680;SDS011;18281;51.364;9.566;2022-07-06T12:16:38;1.35;;;0.60;;
31680;SDS011;18281;51.364;9.566;2022-07-06T12:19:05;5.82;;;0.45;;
31680;SDS011;18281;51.364;9.566;2022-07-06T12:21:32;3.63;;;0.60;;
31680;SDS011;18281;51.364;9.566;2022-07-06T12:23:59;0.90;;;0.50;;
31680;SDS011;18281;51.364;9.566;2022-07-06T12:26:26;2.25;;;0.60;;
31680;SDS011;18281;51.364;9.566;2022-07-06T12:31:42;1.58;;;0.47;;
31680;SDS011;18281;51.364;9.566;2022-07-06T12:34:18;2.53;;;0.50;;
31680;SDS011;18281;51.364;9.566;2022-07-06T12:36:46;9.38;;;0.68;;
31680;SDS011;18281;51.364;9.566;2022-07-06T12:39:13;0.65;;;0.50;;
31680;SDS011;18281;51.364;9.566;2022-07-06T12:41:44;4.47;;;0.57;;
31680;SDS011;18281;51.364;9.566;2022-07-06T12:44:15;2.33;;;0.50;;
31680;SDS011;18281;51.364;9.566;2022-07-06T12:46:42;1.48;;;0.60;;
31680;SDS011;18281;51.364;9.566;2022-07-06T12:51:48;2.08;;;0.50;;
31680;SDS011;18281;51.364;9.566;2022-07-06T12:54:17;1.38;;;0.50;;
31680;SDS011;18281;51.364;9.566;2022-07-06T12:56:55;0.63;;;0.55;;
31680;SDS011;18281;51.364;9.566;2022-07-06T12:59:29;2.90;;;0.40;;
31680;SDS011;18281;51.364;9.566;2022-07-06T13:01:56;2.20;;;0.40;;
31680;SDS011;18281;51.364;9.566;2022-07-06T13:04:23;4.20;;;0.63;;
31680;SDS011;18281;51.364;9.566;2022-07-06T13:06:50;1.52;;;0.30;;
31680;SDS011;18281;51.364;9.566;2022-07-06T13:09:16;3.05;;;0.52;;
31680;SDS011;18281;51.364;9.566;2022-07-06T13:11:42;1.15;;;0.50;;
31680;SDS011;18281;51.364;9.566;2022-07-06T13:14:07;0.95;;;0.47;;
31680;SDS011;18281;51.364;9.566;2022-07-06T13:16:36;0.57;;;0.40;;
31680;SDS011;18281;51.364;9.566;2022-07-06T13:19:02;1.45;;;0.57;;
31680;SDS011;18281;51.364;9.566;2022-07-06T13:21:28;3.08;;;0.40;;
31680;SDS011;18281;51.364;9.566;2022-07-06T13:23:53;1.85;;;0.68;;
31680;SDS011;18281;51.364;9.566;2022-07-06T13:26:19;2.67;;;0.70;;
31680;SDS011;18281;51.364;9.566;2022-07-06T13:28:44;1.20;;;0.50;;
31680;SDS011;18281;51.364;9.566;2022-07-06T13:31:11;0.93;;;0.50;;
31680;SDS011;18281;51.364;9.566;2022-07-06T13:33:36;0.82;;;0.50;;
31680;SDS011;18281;51.364;9.566;2022-07-06T13:36:02;0.57;;;0.40;;
31680;SDS011;18281;51.364;9.566;2022-07-06T13:38:28;1.85;;;0.95;;
31680;SDS011;18281;51.364;9.566;2022-07-06T13:40:54;2.20;;;0.50;;
31680;SDS011;18281;51.364;9.566;2022-07-06T13:43:26;2.22;;;0.40;;
31680;SDS011;18281;51.364;9.566;2022-07-06T13:46:01;1.55;;;0.60;;
31680;SDS011;18281;51.364;9.566;2022-07-06T13:48:28;4.03;;;0.50;;
31680;SDS011;18281;51.364;9.566;2022-07-06T13:50:53;2.08;;;0.50;;
31680;SDS011;18281;51.364;9.566;2022-07-06T13:53:18;2.97;;;0.68;;
31680;SDS011;18281;51.364;9.566;2022-07-06T13:55:44;6.32;;;0.70;;
31680;SDS011;18281;51.364;9.566;2022-07-06T13:58:09;3.65;;;1.00;;
31680;SDS011;18281;51.364;9.566;2022-07-06T14:00:35;1.40;;;0.47;;
31680;SDS011;18281;51.364;9.566;2022-07-06T14:03:00;1.10;;;0.40;;
31680;SDS011;18281;51.364;9.566;2022-07-06T14:05:27;1.83;;;0.40;;
31680;SDS011;18281;51.364;9.566;2022-07-06T14:07:53;7.80;;;0.80;;
31680;SDS011;18281;51.364;9.566;2022-07-06T14:10:18;2.13;;;0.75;;
31680;SDS011;18281;51.364;9.566;2022-07-06T14:12:44;8.18;;;3.63;;
31680;SDS011;18281;51.364;9.566;2022-07-06T14:15:09;7.25;;;0.80;;
31680;SDS011;18281;51.364;9.566;2022-07-06T14:17:35;1.65;;;1.10;;
31680;SDS011;18281;51.364;9.566;2022-07-06T14:20:00;8.45;;;1.80;;
31680;SDS011;18281;51.364;9.566;2022-07-06T14:22:26;2.15;;;1.10;;
31680;SDS011;18281;51.364;9.566;2022-07-06T14:24:51;2.40;;;0.95;;
31680;SDS011;18281;51.364;9.566;2022-07-06T14:27:17;3.80;;;0.40;;
31680;SDS011;18281;51.364;9.566;2022-07-06T14:29:42;1.17;;;0.60;;
31680;SDS011;18281;51.364;9.566;2022-07-06T14:32:08;3.60;;;1.23;;
31680;SDS011;18281;51.364;9.566;2022-07-06T14:34:36;1.15;;;0.50;;
31680;SDS011;18281;51.364;9.566;2022-07-06T14:37:02;7.22;;;0.52;;
31680;SDS011;18281;51.364;9.566;2022-07-06T14:39:28;2.28;;;0.40;;
31680;SDS011;18281;51.364;9.566;2022-07-06T14:42:00;6.43;;;0.40;;
31680;SDS011;18281;51.364;9.566;2022-07-06T14:44:26;1.20;;;0.45;;
31680;SDS011;18281;51.364;9.566;2022-07-06T14:46:52;2.28;;;0.50;;
31680;SDS011;18281;51.364;9.566;2022-07-06T14:49:17;6.43;;;0.60;;
31680;SDS011;18281;51.364;9.566;2022-07-06T14:51:43;2.33;;;0.38;;
31680;SDS011;18281;51.364;9.566;2022-07-06T14:54:08;4.13;;;0.43;;
31680;SDS011;18281;51.364;9.566;2022-07-06T14:56:34;3.30;;;0.50;;
31680;SDS011;18281;51.364;9.566;2022-07-06T14:59:00;0.30;;;0.30;;
31680;SDS011;18281;51.364;9.566;2022-07-06T15:01:26;9.35;;;0.68;;
31680;SDS011;18281;51.364;9.566;2022-07-06T15:03:51;2.17;;;0.60;;
31680;SDS011;18281;51.364;9.566;2022-07-06T15:06:17;1.92;;;0.50;;